createdAt,value
2018-02-25T00:01:16.068Z,32.30
2018-02-25T00:03:44.285Z,33.30
2018-02-25T00:06:11.761Z,32.50
2018-02-25T00:08:39.185Z,31.10
2018-02-25T00:11:06.962Z,29.30
2018-02-25T00:13:36.367Z,31.00
2018-02-25T00:16:03.787Z,32.80
2018-02-25T00:18:32.005Z,30.60
2018-02-25T00:21:03.106Z,32.10
2018-02-25T00:23:33.235Z,32.20
2018-02-25T00:26:00.630Z,32.90
2018-02-25T00:28:32.701Z,32.50
2018-02-25T00:31:02.500Z,30.80
2018-02-25T00:33:29.845Z,30.90
2018-02-25T00:35:59.924Z,30.30
2018-02-25T00:38:28.037Z,33.60
2018-02-25T00:40:55.448Z,32.40
2018-02-25T00:43:27.445Z,30.50
2018-02-25T00:45:57.659Z,33.30
2018-02-25T00:48:25.013Z,30.60
2018-02-25T00:50:53.187Z,29.40
2018-02-25T00:53:20.590Z,31.00
2018-02-25T00:55:47.946Z,33.20
2018-02-25T00:58:17.869Z,28.20
2018-02-25T01:00:45.332Z,26.90
2018-02-25T01:03:13.471Z,28.80
2018-02-25T01:05:41.813Z,32.60
2018-02-25T01:08:09.186Z,29.30
2018-02-25T01:10:36.612Z,28.30
2018-02-25T01:13:05.885Z,34.60
2018-02-25T01:15:37.432Z,30.30
2018-02-25T01:18:04.942Z,30.40
2018-02-25T01:20:34.088Z,29.60
2018-02-25T01:23:05.148Z,31.40
2018-02-25T01:25:33.594Z,33.20
2018-02-25T01:28:04.772Z,32.90
2018-02-25T01:30:33.158Z,31.90
2018-02-25T01:33:00.594Z,30.20
2018-02-25T01:35:27.974Z,32.70
2018-02-25T01:37:56.253Z,34.70
2018-02-25T01:40:24.373Z,32.40
2018-02-25T01:42:54.616Z,30.70
2018-02-25T01:45:24.602Z,30.80
2018-02-25T01:47:52.074Z,31.30
2018-02-25T01:50:19.501Z,33.20
2018-02-25T01:52:46.885Z,31.40
2018-02-25T01:55:14.436Z,31.60
2018-02-25T01:57:41.808Z,30.90
2018-02-25T02:00:10.888Z,33.50
2018-02-25T02:02:39.036Z,35.50
2018-02-25T02:05:06.415Z,34.30
2018-02-25T02:07:33.800Z,33.80
2018-02-25T02:10:02.188Z,32.40
2018-02-25T02:12:30.317Z,32.90
2018-02-25T02:14:57.811Z,30.90
2018-02-25T02:17:26.011Z,31.50
2018-02-25T02:19:53.360Z,33.10
2018-02-25T02:22:20.764Z,35.10
2018-02-25T02:24:48.116Z,35.20
2018-02-25T02:27:15.455Z,31.90
2018-02-25T02:29:44.915Z,34.00
2018-02-25T02:32:12.980Z,36.30
2018-02-25T02:34:40.579Z,32.90
2018-02-25T02:37:07.921Z,32.20
2018-02-25T02:39:35.340Z,32.30
2018-02-25T02:42:03.467Z,33.20
2018-02-25T02:44:33.492Z,34.70
2018-02-25T02:47:01.647Z,31.80
2018-02-25T02:51:58.360Z,35.70
2018-02-25T02:56:54.152Z,35.50
2018-02-25T02:59:22.359Z,34.20
2018-02-25T03:01:49.786Z,32.30
2018-02-25T03:04:17.224Z,37.40
2018-02-25T03:06:45.328Z,34.00
2018-02-25T03:09:12.732Z,35.50
2018-02-25T03:11:40.883Z,32.50
2018-02-25T03:14:08.224Z,32.60
2018-02-25T03:16:36.392Z,33.00
2018-02-25T03:19:03.726Z,31.60
2018-02-25T03:21:31.906Z,32.10
2018-02-25T03:26:28.353Z,35.90
2018-02-25T03:28:55.704Z,30.00
2018-02-25T03:33:51.463Z,35.00
2018-02-25T03:36:19.572Z,37.10
2018-02-25T03:38:47.644Z,29.90
2018-02-25T03:41:15.035Z,31.90
2018-02-25T03:46:10.653Z,32.10
2018-02-25T03:48:38.012Z,33.20
2018-02-25T03:51:05.341Z,37.50
2018-02-25T03:53:33.456Z,35.30
2018-02-25T03:56:00.768Z,34.40
2018-02-25T04:00:56.451Z,37.60
2018-02-25T04:03:23.824Z,37.80
2018-02-25T04:05:51.897Z,32.00
2018-02-25T04:08:19.995Z,31.80
2018-02-25T04:10:48.135Z,34.00
2018-02-25T04:13:15.478Z,35.10
2018-02-25T04:18:11.929Z,36.40
2018-02-25T04:20:39.258Z,31.40
2018-02-25T04:23:06.649Z,35.00
2018-02-25T04:25:34.764Z,39.10
2018-02-25T04:28:03.457Z,32.80
2018-02-25T04:30:31.568Z,33.40
2018-02-25T04:35:28.036Z,29.80
2018-02-25T04:40:23.781Z,37.80
2018-02-25T04:45:20.333Z,33.40
2018-02-25T04:47:48.448Z,30.40
2018-02-25T04:50:15.921Z,39.60
2018-02-25T04:52:44.068Z,36.30
2018-02-25T04:55:11.439Z,36.70
2018-02-25T04:57:39.571Z,35.30
2018-02-25T05:00:06.965Z,36.20
2018-02-25T05:09:59.782Z,35.40
2018-02-25T05:12:28.413Z,31.20
2018-02-25T05:14:56.506Z,31.20
2018-02-25T05:17:23.947Z,34.80
2018-02-25T05:19:51.320Z,36.70
2018-02-25T05:22:19.388Z,37.70
2018-02-25T05:24:46.876Z,31.40
2018-02-25T05:27:14.212Z,32.20
2018-02-25T05:37:06.416Z,36.60
2018-02-25T05:42:02.888Z,34.20
2018-02-25T05:44:30.981Z,32.50
2018-02-25T05:49:26.603Z,34.80
2018-02-25T05:51:54.700Z,31.00
2018-02-25T05:56:51.060Z,35.40
2018-02-25T05:59:18.437Z,35.50
2018-02-25T06:01:45.797Z,29.90
2018-02-25T06:04:13.913Z,29.90
2018-02-25T06:06:41.222Z,35.30
2018-02-25T06:09:09.357Z,34.30
2018-02-25T06:11:36.692Z,35.10
2018-02-25T06:14:04.042Z,32.40
2018-02-25T06:16:31.408Z,33.90
2018-02-25T06:18:59.525Z,36.30
2018-02-25T06:21:26.888Z,34.00
2018-02-25T06:23:54.955Z,35.10
2018-02-25T06:26:22.593Z,31.30
2018-02-25T06:28:50.054Z,30.80
2018-02-25T06:31:17.688Z,33.10
2018-02-25T06:33:45.765Z,29.70
2018-02-25T06:38:41.433Z,32.60
2018-02-25T06:41:09.560Z,33.20
2018-02-25T06:43:36.973Z,32.30
2018-02-25T06:46:05.051Z,34.70
2018-02-25T06:48:32.452Z,36.60
2018-02-25T06:50:59.816Z,35.30
2018-02-25T06:53:27.184Z,37.40
2018-02-25T06:55:55.296Z,34.30
2018-02-25T06:58:22.894Z,34.60
2018-02-25T07:00:50.352Z,36.90
2018-02-25T07:03:17.717Z,34.60
2018-02-25T07:05:45.860Z,33.90
2018-02-25T07:08:13.241Z,30.50
2018-02-25T07:18:05.653Z,30.80
2018-02-25T07:20:33.740Z,28.10
2018-02-25T07:23:01.888Z,33.60
2018-02-25T07:25:29.985Z,33.10
2018-02-25T07:27:58.128Z,29.90
2018-02-25T07:32:54.576Z,31.90
2018-02-25T07:35:22.675Z,33.10
2018-02-25T07:37:50.804Z,30.00
2018-02-25T07:40:18.319Z,29.60
2018-02-25T07:42:45.724Z,30.10
2018-02-25T07:45:13.909Z,29.20
2018-02-25T07:50:17.396Z,31.50
2018-02-25T07:55:14.002Z,34.10
2018-02-25T07:57:42.237Z,30.10
2018-02-25T08:02:38.657Z,31.70
2018-02-25T08:05:06.066Z,34.90
2018-02-25T08:07:34.270Z,29.90
2018-02-25T08:10:01.585Z,29.70
2018-02-25T08:12:29.023Z,30.30
2018-02-25T08:17:24.744Z,30.60
2018-02-25T08:19:52.181Z,35.10
2018-02-25T08:22:20.307Z,31.00
2018-02-25T08:24:48.461Z,33.70
2018-02-25T08:32:12.416Z,32.30
2018-02-25T08:34:40.569Z,31.20
2018-02-25T08:37:08.681Z,28.20
2018-02-25T08:39:36.793Z,29.70
2018-02-25T08:44:33.308Z,28.10
2018-02-25T08:47:01.436Z,27.30
2018-02-25T08:49:29.573Z,28.80
2018-02-25T08:51:57.750Z,30.80
2018-02-25T08:54:25.167Z,26.20
2018-02-25T08:56:53.313Z,25.00
2018-02-25T08:59:21.381Z,24.90
2018-02-25T09:01:48.903Z,23.70
2018-02-25T09:09:13.003Z,21.00
2018-02-25T09:11:40.340Z,22.70
2018-02-25T09:16:36.066Z,25.30
2018-02-25T09:19:03.453Z,23.20
2018-02-25T09:21:30.836Z,18.40
2018-02-25T09:23:59.136Z,17.30
2018-02-25T09:28:54.817Z,20.90
2018-02-25T09:36:19.717Z,22.00
2018-02-25T09:38:47.877Z,19.10
2018-02-25T09:41:15.273Z,18.60
2018-02-25T09:46:11.108Z,20.90
2018-02-25T09:51:06.737Z,20.20
2018-02-25T09:53:34.797Z,19.50
2018-02-25T09:56:02.261Z,17.60
2018-02-25T09:58:30.446Z,19.80
2018-02-25T10:03:26.859Z,18.10
2018-02-25T10:05:55.056Z,17.10
2018-02-25T10:13:19.004Z,24.00
2018-02-25T10:15:47.229Z,25.00
2018-02-25T10:18:14.831Z,23.20
2018-02-25T10:20:43.308Z,23.30
2018-02-25T10:23:11.476Z,23.60
2018-02-25T10:25:39.596Z,20.00
2018-02-25T10:28:07.236Z,17.70
2018-02-25T10:30:34.636Z,14.50
2018-02-25T10:33:02.091Z,16.80
2018-02-25T10:35:29.498Z,16.70
2018-02-25T10:37:57.625Z,18.60
2018-02-25T10:42:54.381Z,16.00
2018-02-25T10:45:22.584Z,21.00
2018-02-25T10:47:50.031Z,22.90
2018-02-25T10:55:14.291Z,18.00
2018-02-25T10:57:42.405Z,21.60
2018-02-25T11:02:38.237Z,20.40
2018-02-25T11:05:05.636Z,16.50
2018-02-25T11:10:01.347Z,19.10
2018-02-25T11:12:29.475Z,19.70
2018-02-25T11:14:56.829Z,15.80
2018-02-25T11:17:24.373Z,18.70
2018-02-25T11:22:20.176Z,13.70
2018-02-25T11:24:48.279Z,10.90
2018-02-25T11:27:15.704Z,12.80
2018-02-25T11:29:44.071Z,12.20
2018-02-25T11:32:12.261Z,11.90
2018-02-25T11:34:40.560Z,12.40
2018-02-25T11:37:08.027Z,14.00
2018-02-25T11:39:35.493Z,11.80
2018-02-25T11:42:02.877Z,12.80
2018-02-25T11:44:30.381Z,11.80
2018-02-25T11:46:58.519Z,10.50
2018-02-25T11:49:26.708Z,8.70
2018-02-25T11:51:54.216Z,9.90
2018-02-25T11:54:22.005Z,9.90
2018-02-25T12:09:12.320Z,13.10
2018-02-25T12:11:39.807Z,11.40
2018-02-25T12:14:08.067Z,12.10
2018-02-25T12:16:36.309Z,11.50
2018-02-25T12:19:04.415Z,11.60
2018-02-25T12:21:31.844Z,13.30
2018-02-25T12:24:00.132Z,11.90
2018-02-25T12:28:56.231Z,12.50
2018-02-25T12:31:23.592Z,15.40
2018-02-25T12:33:52.044Z,13.30
2018-02-25T12:36:19.521Z,15.10
2018-02-25T12:38:48.088Z,11.00
2018-02-25T12:41:15.459Z,10.30
2018-02-25T12:43:43.608Z,11.00
2018-02-25T12:46:11.703Z,10.30
2018-02-25T12:48:39.153Z,12.30
2018-02-25T12:51:06.541Z,13.80
2018-02-25T12:53:34.713Z,14.60
2018-02-25T13:00:58.647Z,10.70
2018-02-25T13:03:26.794Z,14.10
2018-02-25T13:05:56.121Z,12.10
2018-02-25T13:10:51.814Z,12.80
2018-02-25T13:13:19.932Z,12.40
2018-02-25T13:18:15.969Z,9.10
2018-02-25T13:20:43.403Z,13.60
2018-02-25T13:23:10.739Z,11.10
2018-02-25T13:25:38.931Z,10.60
2018-02-25T13:28:06.374Z,10.60
2018-02-25T13:33:03.202Z,11.30
2018-02-25T13:35:31.338Z,11.00
2018-02-25T13:40:34.564Z,16.30
2018-02-25T13:43:02.013Z,18.80
2018-02-25T13:45:29.391Z,18.50
2018-02-25T13:47:56.741Z,23.20
2018-02-25T13:50:24.132Z,19.10
2018-02-25T13:52:52.243Z,16.70
2018-02-25T13:55:20.353Z,13.30
2018-02-25T14:02:45.091Z,13.40
2018-02-25T14:05:13.168Z,12.60
2018-02-25T14:07:41.376Z,10.80
2018-02-25T14:10:08.833Z,12.20
2018-02-25T14:12:36.209Z,11.40
2018-02-25T14:15:03.564Z,14.40
2018-02-25T14:19:59.286Z,14.30
2018-02-25T14:22:27.398Z,19.30
2018-02-25T14:24:54.964Z,20.00
2018-02-25T14:27:23.075Z,21.50
2018-02-25T14:29:51.465Z,22.60
2018-02-25T14:32:18.894Z,22.50
2018-02-25T14:34:46.474Z,21.50
2018-02-25T14:37:13.900Z,22.60
2018-02-25T14:39:41.378Z,18.30
2018-02-25T14:42:08.837Z,21.60
2018-02-25T14:47:04.531Z,18.80
2018-02-25T14:49:32.673Z,22.30
2018-02-25T14:52:01.933Z,24.10
2018-02-25T14:54:30.093Z,21.90
2018-02-25T14:57:05.064Z,20.40
2018-02-25T14:59:37.268Z,23.50
2018-02-25T15:02:05.384Z,21.80
2018-02-25T15:07:02.815Z,22.80
2018-02-25T15:09:30.950Z,19.00
2018-02-25T15:14:27.446Z,27.00
2018-02-25T15:16:55.629Z,25.40
2018-02-25T15:19:24.066Z,24.30
2018-02-25T15:21:51.428Z,26.20
2018-02-25T15:26:50.339Z,25.00
2018-02-25T15:29:23.436Z,26.50
2018-02-25T15:31:51.836Z,24.80
2018-02-25T15:36:52.197Z,27.80
2018-02-25T15:39:19.581Z,27.20
2018-02-25T15:44:15.385Z,23.20
2018-02-25T15:46:42.797Z,25.90
2018-02-25T15:51:38.517Z,22.90
2018-02-25T15:54:05.938Z,23.00
2018-02-25T15:56:34.414Z,20.70
2018-02-25T16:03:59.914Z,21.40
2018-02-25T16:06:29.003Z,22.20
2018-02-25T16:11:25.551Z,25.90
2018-02-25T16:13:52.945Z,28.00
2018-02-25T16:16:21.126Z,24.70
2018-02-25T16:18:48.552Z,24.00
2018-02-25T16:21:15.937Z,24.70
2018-02-25T16:23:43.374Z,27.10
2018-02-25T16:26:10.837Z,25.70
2018-02-25T16:28:40.202Z,26.30
2018-02-25T16:31:08.360Z,26.10
2018-02-25T16:33:35.872Z,23.40
2018-02-25T16:36:03.263Z,22.50
2018-02-25T16:38:30.794Z,24.40
2018-02-25T16:40:58.266Z,25.70
2018-02-25T16:43:26.518Z,26.10
2018-02-25T16:45:56.285Z,25.50
2018-02-25T16:48:23.666Z,26.50
2018-02-25T16:50:51.827Z,24.00
2018-02-25T16:53:20.051Z,24.60
2018-02-25T16:55:47.597Z,27.30
2018-02-25T16:58:15.205Z,22.80
2018-02-25T17:00:42.592Z,25.50
2018-02-25T17:03:10.087Z,26.80
2018-02-25T17:05:37.576Z,25.20
2018-02-25T17:08:04.984Z,24.90
2018-02-25T17:10:32.441Z,23.40
2018-02-25T17:13:00.845Z,24.00
2018-02-25T17:15:29.184Z,25.00
2018-02-25T17:17:57.298Z,29.00
2018-02-25T17:20:26.407Z,27.50
2018-02-25T17:22:58.464Z,24.10
2018-02-25T17:25:25.902Z,25.50
2018-02-25T17:27:53.320Z,26.10
2018-02-25T17:30:22.549Z,29.10
2018-02-25T17:32:50.037Z,26.10
2018-02-25T17:35:18.191Z,26.40
2018-02-25T17:37:48.308Z,25.70
2018-02-25T17:40:16.682Z,23.10
2018-02-25T17:42:50.876Z,22.20
2018-02-25T17:45:18.283Z,27.40
2018-02-25T17:47:45.712Z,28.90
2018-02-25T17:50:13.146Z,26.10
2018-02-25T17:52:40.563Z,23.50
2018-02-25T17:55:08.665Z,22.70
2018-02-25T17:57:36.095Z,27.30
2018-02-25T18:00:04.248Z,24.90
2018-02-25T18:02:31.768Z,27.10
2018-02-25T18:05:00.924Z,25.80
2018-02-25T18:07:28.369Z,24.40
2018-02-25T18:09:55.748Z,23.10
2018-02-25T18:12:23.975Z,26.10
2018-02-25T18:14:51.352Z,24.90
2018-02-25T18:17:18.702Z,22.60
2018-02-25T18:19:48.804Z,27.90
2018-02-25T18:22:17.221Z,23.20
2018-02-25T18:24:45.468Z,24.40
2018-02-25T18:27:12.840Z,29.90
2018-02-25T18:29:40.272Z,26.60
2018-02-25T18:32:07.688Z,25.20
2018-02-25T18:34:35.156Z,23.80
2018-02-25T18:37:02.601Z,24.70
2018-02-25T18:39:29.940Z,25.80
2018-02-25T18:42:00.033Z,23.30
2018-02-25T18:44:28.159Z,23.40
2018-02-25T18:46:55.730Z,24.20
2018-02-25T18:49:23.124Z,26.70
2018-02-25T18:51:51.639Z,25.50
2018-02-25T18:54:18.997Z,27.70
2018-02-25T18:56:52.347Z,24.40
2018-02-25T18:59:23.301Z,22.80
2018-02-25T19:01:51.485Z,25.70
2018-02-25T19:04:19.676Z,26.80
2018-02-25T19:06:47.218Z,28.30
2018-02-25T19:09:15.045Z,27.90
2018-02-25T19:11:42.637Z,23.50
2018-02-25T19:14:11.076Z,22.60
2018-02-25T19:16:38.455Z,21.90
2018-02-25T19:26:44.230Z,23.30
2018-02-25T19:29:11.866Z,25.30
2018-02-25T19:31:39.276Z,23.80
2018-02-25T19:34:08.488Z,23.40
2018-02-25T19:36:42.706Z,25.00
2018-02-25T19:42:16.987Z,23.60
2018-02-25T19:44:44.349Z,23.80
2018-02-25T19:47:13.557Z,24.20
2018-02-25T19:49:42.224Z,25.00
2018-02-25T19:52:09.635Z,26.10
2018-02-25T19:54:37.070Z,25.60
2018-02-25T19:57:04.473Z,24.20
2018-02-25T19:59:31.868Z,22.70
2018-02-25T20:01:59.267Z,24.10
2018-02-25T20:04:26.828Z,23.80
2018-02-25T20:06:54.242Z,23.60
2018-02-25T20:09:21.744Z,25.80
2018-02-25T20:11:49.273Z,28.20
2018-02-25T20:14:16.832Z,27.00
2018-02-25T20:16:45.503Z,27.10
2018-02-25T20:19:13.753Z,30.60
2018-02-25T20:21:43.006Z,26.40
2018-02-25T20:24:13.969Z,24.70
2018-02-25T20:26:42.287Z,30.10
2018-02-25T20:29:16.963Z,31.20
2018-02-25T20:31:45.305Z,30.00
2018-02-25T20:34:15.491Z,28.90
2018-02-25T20:36:43.813Z,29.40
2018-02-25T20:39:13.137Z,25.10
2018-02-25T20:41:43.038Z,30.80
2018-02-25T20:44:10.477Z,26.60
2018-02-25T20:46:38.615Z,28.60
2018-02-25T20:49:06.796Z,31.90
2018-02-25T20:51:35.096Z,32.90
2018-02-25T20:54:03.244Z,26.80
2018-02-25T20:56:32.528Z,30.20
2018-02-25T20:59:01.909Z,25.80
2018-02-25T21:01:29.437Z,29.40
2018-02-25T21:04:00.373Z,30.70
2018-02-25T21:06:27.957Z,26.30
2018-02-25T21:08:55.331Z,30.50
2018-02-25T21:11:22.718Z,25.90
2018-02-25T21:13:50.116Z,25.20
2018-02-25T21:16:18.540Z,30.00
2018-02-25T21:18:45.947Z,27.40
2018-02-25T21:21:14.015Z,26.50
2018-02-25T21:23:42.301Z,28.70
2018-02-25T21:26:09.693Z,27.10
2018-02-25T21:28:37.968Z,27.70
2018-02-25T21:31:05.372Z,25.40
2018-02-25T21:33:33.487Z,27.90
2018-02-25T21:36:00.907Z,23.70
2018-02-25T21:38:28.526Z,24.80
2018-02-25T21:40:56.468Z,28.90
2018-02-25T21:43:23.864Z,24.40
2018-02-25T21:45:51.241Z,26.00
2018-02-25T21:48:18.653Z,28.00
2018-02-25T21:50:46.180Z,27.80
2018-02-25T21:53:13.543Z,29.00
2018-02-25T21:55:40.972Z,28.80
2018-02-25T22:03:57.619Z,25.50
2018-02-25T22:06:25.028Z,25.80
2018-02-25T22:11:21.520Z,27.70
2018-02-25T22:13:49.691Z,25.50
2018-02-25T22:16:23.422Z,26.90
2018-02-25T22:18:51.524Z,29.40
2018-02-25T22:21:19.792Z,28.10
2018-02-25T22:23:47.170Z,25.90
2018-02-25T22:26:15.765Z,24.70
2018-02-25T22:28:43.940Z,23.70
2018-02-25T22:31:12.055Z,28.60
2018-02-25T22:33:39.372Z,28.10
2018-02-25T22:36:07.701Z,28.40
2018-02-25T22:38:36.120Z,24.10
2018-02-25T22:41:04.300Z,24.20
2018-02-25T22:48:28.496Z,24.90
2018-02-25T22:50:55.842Z,27.60
2018-02-25T22:55:51.723Z,26.60
2018-02-25T22:58:19.226Z,23.20
2018-02-25T23:00:46.754Z,27.60
2018-02-25T23:03:15.101Z,26.90
2018-02-25T23:05:43.395Z,28.20
2018-02-25T23:08:11.551Z,26.80
2018-02-25T23:10:39.260Z,28.50
2018-02-25T23:13:06.688Z,26.80
2018-02-25T23:18:03.188Z,29.80
2018-02-25T23:20:30.720Z,27.00
2018-02-25T23:22:58.088Z,26.80
2018-02-25T23:25:25.487Z,26.40
2018-02-25T23:27:53.628Z,26.30
2018-02-25T23:30:20.987Z,26.30
2018-02-25T23:32:48.445Z,27.80
2018-02-25T23:35:15.881Z,27.70
2018-02-25T23:37:43.284Z,24.70
2018-02-25T23:40:11.442Z,27.10
2018-02-25T23:42:39.611Z,27.10
2018-02-25T23:45:07.733Z,26.70
2018-02-25T23:47:35.112Z,22.60
2018-02-25T23:50:02.504Z,25.60
2018-02-25T23:52:30.611Z,28.20
2018-02-25T23:54:58.076Z,27.90
2018-02-25T23:57:25.422Z,27.60
2018-02-25T23:59:53.588Z,29.80
